createdAt,value
2023-02-23T00:02:05.773Z,14.01
2023-02-23T00:04:33.814Z,13.88
2023-02-23T00:07:01.196Z,13.62
2023-02-23T00:09:35.213Z,13.91
2023-02-23T00:12:08.048Z,13.89
2023-02-23T00:14:40.371Z,13.96
2023-02-23T00:17:14.524Z,13.83
2023-02-23T00:19:43.579Z,13.90
2023-02-23T00:22:11.844Z,13.86
2023-02-23T00:24:40.563Z,14.01
2023-02-23T00:27:07.903Z,13.97
2023-02-23T00:29:39.617Z,14.18
2023-02-23T00:32:07.048Z,14.24
2023-02-23T00:34:36.630Z,14.12
2023-02-23T00:37:04.082Z,13.91
2023-02-23T00:39:31.421Z,14.10
2023-02-23T00:42:03.470Z,14.10
2023-02-23T00:44:33.672Z,13.98
2023-02-23T00:47:03.712Z,14.29
2023-02-23T00:49:30.652Z,14.07
2023-02-23T00:51:57.609Z,14.15
2023-02-23T00:54:25.266Z,14.13
2023-02-23T00:56:52.650Z,14.25
2023-02-23T00:59:19.825Z,14.15
2023-02-23T01:01:47.075Z,14.18
2023-02-23T01:04:14.665Z,14.19
2023-02-23T01:06:43.061Z,14.16
2023-02-23T01:09:16.073Z,14.15
2023-02-23T01:11:46.626Z,14.12
2023-02-23T01:14:15.013Z,14.13
2023-02-23T01:16:42.008Z,14.01
2023-02-23T01:19:10.819Z,14.08
2023-02-23T01:21:42.192Z,14.05
2023-02-23T01:24:11.816Z,14.13
2023-02-23T01:26:45.029Z,13.97
2023-02-23T01:29:16.400Z,13.94
2023-02-23T01:31:47.371Z,14.23
2023-02-23T01:34:19.139Z,13.91
2023-02-23T01:36:46.477Z,13.83
2023-02-23T01:39:18.374Z,13.62
2023-02-23T01:41:45.827Z,13.75
2023-02-23T01:44:12.747Z,13.96
2023-02-23T01:46:46.152Z,14.01
2023-02-23T01:49:25.634Z,14.05
2023-02-23T01:52:00.519Z,13.94
2023-02-23T01:54:36.288Z,13.98
2023-02-23T01:57:06.522Z,13.98
2023-02-23T01:59:44.669Z,14.17
2023-02-23T02:02:13.311Z,13.66
2023-02-23T02:04:45.653Z,13.55
2023-02-23T02:07:17.670Z,13.75
2023-02-23T02:10:10.233Z,13.84
2023-02-23T02:12:45.731Z,14.04
2023-02-23T02:15:19.947Z,13.96
2023-02-23T02:18:11.878Z,14.20
2023-02-23T02:21:04.619Z,13.95
2023-02-23T02:24:13.156Z,14.04
2023-02-23T02:27:08.012Z,13.98
2023-02-23T02:30:01.803Z,14.00
2023-02-23T02:33:00.979Z,14.04
2023-02-23T02:35:51.603Z,14.05
2023-02-23T02:39:07.074Z,14.02
2023-02-23T02:42:21.569Z,14.21
2023-02-23T02:45:45.863Z,14.15
2023-02-23T02:48:42.038Z,14.08
2023-02-23T02:51:28.588Z,13.99
2023-02-23T02:54:06.731Z,13.93
2023-02-23T02:56:40.369Z,13.97
2023-02-23T02:59:34.246Z,13.94
2023-02-23T03:02:20.859Z,13.69
2023-02-23T03:05:06.853Z,13.81
2023-02-23T03:08:15.080Z,14.00
2023-02-23T03:11:20.416Z,13.98
2023-02-23T03:14:48.318Z,14.02
2023-02-23T03:18:03.005Z,13.87
2023-02-23T03:20:51.404Z,13.84
2023-02-23T03:24:01.270Z,13.97
2023-02-23T03:27:11.807Z,13.95
2023-02-23T03:30:00.329Z,13.77
2023-02-23T03:32:53.546Z,13.73
2023-02-23T03:36:10.747Z,13.99
2023-02-23T03:39:01.661Z,13.93
2023-02-23T03:41:50.088Z,13.83
2023-02-23T03:44:51.211Z,13.98
2023-02-23T03:47:42.116Z,13.95
2023-02-23T03:50:40.024Z,13.91
2023-02-23T03:53:28.937Z,13.92
2023-02-23T03:56:17.774Z,13.89
2023-02-23T03:59:10.607Z,14.02
2023-02-23T04:01:58.304Z,13.84
2023-02-23T04:04:46.390Z,13.91
2023-02-23T04:07:37.476Z,13.93
2023-02-23T04:10:24.846Z,13.90
2023-02-23T04:13:16.421Z,13.87
2023-02-23T04:15:50.969Z,14.00
2023-02-23T04:18:28.099Z,14.01
2023-02-23T04:20:57.512Z,13.95
2023-02-23T04:23:25.481Z,13.71
2023-02-23T04:25:53.715Z,13.84
2023-02-23T04:28:22.668Z,13.85
2023-02-23T04:30:52.449Z,13.86
2023-02-23T04:33:22.004Z,13.87
2023-02-23T04:35:49.463Z,13.93
2023-02-23T04:38:16.911Z,14.02
2023-02-23T04:40:44.492Z,13.94
2023-02-23T04:43:13.227Z,13.98
2023-02-23T04:45:40.915Z,13.27
2023-02-23T04:48:08.607Z,13.93
2023-02-23T04:50:35.956Z,13.83
2023-02-23T04:53:03.265Z,13.79
2023-02-23T04:55:30.683Z,13.87
2023-02-23T04:58:00.206Z,13.94
2023-02-23T05:00:29.321Z,13.91
2023-02-23T05:02:57.559Z,13.91
2023-02-23T05:05:25.049Z,13.92
2023-02-23T05:07:52.978Z,13.86
2023-02-23T05:10:20.333Z,13.98
2023-02-23T05:12:47.723Z,13.86
2023-02-23T05:15:15.227Z,13.68
2023-02-23T05:17:42.742Z,13.79
2023-02-23T05:20:13.550Z,13.87
2023-02-23T05:22:40.630Z,13.76
2023-02-23T05:25:09.504Z,13.72
2023-02-23T05:27:37.129Z,13.77
2023-02-23T05:30:07.828Z,13.90
2023-02-23T05:32:35.458Z,13.78
2023-02-23T05:35:03.202Z,13.82
2023-02-23T05:37:30.598Z,13.82
2023-02-23T05:39:57.935Z,13.80
2023-02-23T05:42:25.306Z,13.83
2023-02-23T05:44:52.678Z,13.86
2023-02-23T05:47:20.016Z,13.93
2023-02-23T05:49:47.106Z,13.84
2023-02-23T05:52:14.043Z,13.67
2023-02-23T05:54:41.326Z,13.85
2023-02-23T05:57:08.760Z,13.87
2023-02-23T05:59:36.129Z,13.79
2023-02-23T06:02:05.926Z,14.01
2023-02-23T06:04:33.603Z,13.97
2023-02-23T06:07:00.932Z,13.96
2023-02-23T06:09:28.362Z,13.72
2023-02-23T06:11:55.685Z,13.93
2023-02-23T06:14:23.014Z,13.92
2023-02-23T06:16:50.588Z,13.73
2023-02-23T06:19:18.059Z,13.81
2023-02-23T06:21:45.856Z,13.81
2023-02-23T06:24:13.444Z,13.79
2023-02-23T06:26:42.367Z,13.89
2023-02-23T06:29:11.973Z,13.91
2023-02-23T06:31:39.544Z,13.95
2023-02-23T06:34:06.970Z,13.56
2023-02-23T06:36:34.470Z,13.95
2023-02-23T06:39:02.086Z,13.94
2023-02-23T06:41:29.496Z,14.01
2023-02-23T06:43:56.851Z,13.90
2023-02-23T06:46:24.658Z,13.93
2023-02-23T06:48:55.937Z,14.08
2023-02-23T06:51:23.793Z,14.03
2023-02-23T06:53:53.313Z,14.04
2023-02-23T06:56:20.433Z,13.96
2023-02-23T06:58:48.031Z,13.99
2023-02-23T07:01:15.887Z,13.98
2023-02-23T07:03:43.432Z,13.97
2023-02-23T07:06:10.862Z,13.90
2023-02-23T07:08:38.758Z,14.03
2023-02-23T07:11:11.159Z,14.02
2023-02-23T07:13:38.551Z,13.31
2023-02-23T07:16:07.203Z,13.63
2023-02-23T07:18:34.953Z,13.86
2023-02-23T07:21:02.295Z,13.18
2023-02-23T07:23:29.669Z,13.47
2023-02-23T07:25:58.039Z,13.78
2023-02-23T07:28:27.344Z,13.91
2023-02-23T07:30:57.371Z,14.14
2023-02-23T07:33:25.290Z,14.06
2023-02-23T07:35:52.817Z,13.81
2023-02-23T07:38:20.432Z,13.91
2023-02-23T07:40:49.586Z,14.01
2023-02-23T07:43:16.940Z,14.10
2023-02-23T07:45:46.502Z,13.83
2023-02-23T07:48:13.679Z,13.31
2023-02-23T07:50:42.384Z,13.82
2023-02-23T07:53:10.077Z,13.92
2023-02-23T07:55:38.453Z,13.99
2023-02-23T07:58:06.683Z,14.25
2023-02-23T08:00:35.038Z,13.98
2023-02-23T08:03:02.423Z,13.51
2023-02-23T08:05:30.409Z,13.77
2023-02-23T08:07:59.153Z,14.29
2023-02-23T08:10:26.785Z,14.24
2023-02-23T08:12:54.271Z,14.41
2023-02-23T08:15:21.630Z,14.29
2023-02-23T08:17:49.060Z,14.28
2023-02-23T08:20:16.429Z,14.20
2023-02-23T08:22:49.650Z,14.10
2023-02-23T08:25:18.040Z,13.92
2023-02-23T08:27:45.877Z,13.99
2023-02-23T08:30:15.775Z,14.41
2023-02-23T08:32:44.620Z,14.21
2023-02-23T08:35:12.825Z,14.36
2023-02-23T08:37:41.854Z,14.34
2023-02-23T08:40:10.307Z,14.19
2023-02-23T08:42:38.248Z,14.37
2023-02-23T08:45:08.585Z,14.47
2023-02-23T08:47:36.909Z,14.56
2023-02-23T08:50:05.692Z,14.41
2023-02-23T08:52:34.105Z,14.47
2023-02-23T08:55:01.648Z,14.62
2023-02-23T08:57:29.620Z,14.57
2023-02-23T08:59:57.137Z,14.46
2023-02-23T09:02:24.936Z,14.08
2023-02-23T09:04:55.283Z,14.57
2023-02-23T09:07:23.525Z,14.67
2023-02-23T09:09:56.395Z,14.73
2023-02-23T09:12:23.820Z,13.75
2023-02-23T09:14:53.711Z,13.77
2023-02-23T09:17:22.975Z,13.90
2023-02-23T09:19:51.281Z,14.05
2023-02-23T09:22:20.861Z,14.13
2023-02-23T09:24:48.446Z,14.14
2023-02-23T09:27:18.558Z,14.35
2023-02-23T09:29:45.926Z,14.45
2023-02-23T09:32:15.676Z,14.89
2023-02-23T09:34:43.356Z,15.02
2023-02-23T09:37:10.683Z,14.95
2023-02-23T09:39:39.164Z,14.99
2023-02-23T09:42:26.538Z,15.28
2023-02-23T09:45:39.918Z,15.30
2023-02-23T09:48:23.045Z,15.10
2023-02-23T09:50:58.311Z,15.24
2023-02-23T09:53:40.998Z,15.07
2023-02-23T09:56:23.675Z,15.36
2023-02-23T09:58:51.026Z,15.04
2023-02-23T10:01:49.078Z,15.68
2023-02-23T10:04:24.213Z,15.19
2023-02-23T10:07:09.425Z,15.82
2023-02-23T10:10:07.385Z,15.77
2023-02-23T10:13:09.436Z,15.84
2023-02-23T10:16:04.361Z,16.08
2023-02-23T10:19:04.444Z,15.80
2023-02-23T10:21:40.008Z,15.77
2023-02-23T10:24:33.797Z,16.15
2023-02-23T10:27:12.572Z,16.35
2023-02-23T10:29:51.912Z,16.11
2023-02-23T10:32:43.071Z,16.16
2023-02-23T10:35:19.334Z,16.37
2023-02-23T10:37:47.682Z,15.91
2023-02-23T10:40:18.548Z,16.20
2023-02-23T10:42:45.893Z,16.74
2023-02-23T10:45:23.001Z,16.92
2023-02-23T10:48:06.234Z,16.89
2023-02-23T10:50:36.706Z,16.70
2023-02-23T10:53:18.343Z,16.11
2023-02-23T10:55:47.083Z,15.93
2023-02-23T10:58:20.569Z,16.43
2023-02-23T11:01:02.968Z,16.72
2023-02-23T11:03:36.553Z,16.16
2023-02-23T11:06:04.173Z,16.82
2023-02-23T11:08:39.544Z,17.15
2023-02-23T11:11:15.928Z,16.60
2023-02-23T11:13:46.761Z,16.45
2023-02-23T11:16:25.435Z,16.86
2023-02-23T11:19:01.114Z,17.26
2023-02-23T11:21:35.477Z,17.09
2023-02-23T11:24:18.112Z,16.51
2023-02-23T11:26:47.779Z,16.87
2023-02-23T11:29:22.759Z,16.41
2023-02-23T11:31:58.440Z,16.44
2023-02-23T11:34:35.393Z,16.71
2023-02-23T11:37:27.083Z,17.37
2023-02-23T11:39:59.741Z,17.13
2023-02-23T11:42:35.612Z,17.42
2023-02-23T11:45:08.138Z,16.04
2023-02-23T11:47:41.443Z,16.42
2023-02-23T11:50:22.221Z,17.15
2023-02-23T11:53:02.028Z,17.28
2023-02-23T11:55:31.671Z,17.33
2023-02-23T11:58:37.615Z,16.74
2023-02-23T12:01:12.181Z,17.04
2023-02-23T12:03:47.830Z,17.59
2023-02-23T12:06:36.350Z,17.90
2023-02-23T12:09:28.159Z,17.11
2023-02-23T12:12:14.192Z,17.64
2023-02-23T12:14:53.945Z,17.24
2023-02-23T12:17:28.357Z,17.40
2023-02-23T12:20:16.540Z,17.76
2023-02-23T12:22:52.438Z,17.98
2023-02-23T12:25:55.998Z,17.69
2023-02-23T12:28:52.975Z,18.10
2023-02-23T12:31:40.439Z,18.15
2023-02-23T12:34:40.091Z,18.02
2023-02-23T12:37:09.927Z,17.98
2023-02-23T12:39:43.728Z,17.40
2023-02-23T12:42:23.914Z,17.67
2023-02-23T12:45:06.026Z,17.51
2023-02-23T12:47:59.345Z,16.89
2023-02-23T12:50:43.440Z,16.73
2023-02-23T12:53:37.728Z,16.32
2023-02-23T12:56:46.782Z,17.17
2023-02-23T13:00:24.021Z,16.70
2023-02-23T13:03:40.207Z,16.96
2023-02-23T13:06:36.843Z,16.86
2023-02-23T13:09:29.843Z,17.07
2023-02-23T13:12:30.181Z,17.34
2023-02-23T13:15:15.655Z,17.17
2023-02-23T13:17:51.781Z,16.60
2023-02-23T13:20:25.348Z,16.53
2023-02-23T13:23:12.754Z,17.41
2023-02-23T13:26:09.886Z,17.21
2023-02-23T13:29:07.809Z,17.13
2023-02-23T13:31:38.666Z,17.34
2023-02-23T13:34:11.905Z,17.40
2023-02-23T13:36:40.733Z,17.38
2023-02-23T13:39:45.152Z,17.30
2023-02-23T13:42:56.688Z,17.22
2023-02-23T13:45:32.384Z,17.34
2023-02-23T13:48:31.668Z,17.82
2023-02-23T13:51:30.482Z,17.72
2023-02-23T13:54:33.150Z,17.62
2023-02-23T13:57:05.726Z,17.45
2023-02-23T13:59:43.541Z,17.02
2023-02-23T14:02:35.860Z,17.28
2023-02-23T14:05:20.915Z,16.92
2023-02-23T14:07:54.973Z,17.55
2023-02-23T14:10:25.783Z,17.38
2023-02-23T14:13:15.528Z,17.64
2023-02-23T14:15:53.608Z,17.55
2023-02-23T14:18:21.055Z,17.46
2023-02-23T14:21:15.980Z,17.37
2023-02-23T14:24:21.503Z,17.07
2023-02-23T14:27:41.598Z,16.89
2023-02-23T14:30:12.124Z,16.57
2023-02-23T14:32:45.634Z,16.53
2023-02-23T14:35:34.427Z,17.74
2023-02-23T14:38:10.257Z,17.41
2023-02-23T14:40:43.394Z,17.76
2023-02-23T14:43:51.380Z,17.98
2023-02-23T14:46:22.034Z,17.83
2023-02-23T14:49:10.247Z,17.80
2023-02-23T14:51:48.529Z,17.61
2023-02-23T14:54:36.166Z,18.33
2023-02-23T14:57:19.139Z,18.20
2023-02-23T15:00:02.738Z,18.00
2023-02-23T15:02:31.245Z,17.64
2023-02-23T15:04:58.650Z,18.22
2023-02-23T15:07:40.297Z,18.37
2023-02-23T15:10:17.708Z,18.05
2023-02-23T15:12:47.081Z,17.60
2023-02-23T15:15:20.473Z,17.33
2023-02-23T15:17:53.315Z,17.35
2023-02-23T15:20:28.644Z,17.37
2023-02-23T15:22:59.184Z,17.40
2023-02-23T15:25:35.044Z,17.12
2023-02-23T15:28:29.594Z,17.64
2023-02-23T15:31:01.128Z,17.39
2023-02-23T15:33:28.958Z,17.46
2023-02-23T15:36:10.102Z,17.10
2023-02-23T15:38:46.011Z,17.57
2023-02-23T15:41:37.219Z,17.39
2023-02-23T15:44:22.752Z,17.37
2023-02-23T15:47:00.317Z,17.39
2023-02-23T15:49:37.911Z,16.94
2023-02-23T15:52:15.578Z,16.86
2023-02-23T15:55:10.111Z,16.80
2023-02-23T15:58:00.068Z,16.91
2023-02-23T16:00:38.454Z,17.10
2023-02-23T16:03:07.958Z,17.35
2023-02-23T16:05:46.517Z,16.75
2023-02-23T16:08:25.263Z,17.46
2023-02-23T16:11:02.237Z,17.05
2023-02-23T16:13:29.237Z,16.76
2023-02-23T16:15:57.020Z,16.94
2023-02-23T16:18:36.029Z,16.74
2023-02-23T16:21:04.815Z,16.62
2023-02-23T16:23:41.138Z,16.73
2023-02-23T16:26:12.875Z,16.56
2023-02-23T16:28:45.915Z,16.38
2023-02-23T16:31:14.538Z,15.99
2023-02-23T16:33:52.926Z,16.08
2023-02-23T16:36:24.117Z,15.96
2023-02-23T16:39:02.932Z,15.90
2023-02-23T16:41:34.476Z,15.78
2023-02-23T16:44:07.374Z,15.75
2023-02-23T16:47:03.164Z,15.85
2023-02-23T16:49:30.585Z,15.84
2023-02-23T16:51:59.466Z,15.83
2023-02-23T16:54:27.110Z,15.86
2023-02-23T16:56:56.026Z,16.06
2023-02-23T16:59:24.149Z,15.96
2023-02-23T17:01:51.574Z,16.14
2023-02-23T17:04:20.744Z,16.14
2023-02-23T17:06:57.637Z,16.43
2023-02-23T17:09:25.363Z,16.39
2023-02-23T17:11:52.658Z,16.56
2023-02-23T17:14:28.257Z,16.76
2023-02-23T17:16:55.362Z,16.70
2023-02-23T17:19:24.657Z,16.38
2023-02-23T17:21:53.019Z,16.75
2023-02-23T17:24:24.406Z,16.69
2023-02-23T17:26:55.448Z,16.93
2023-02-23T17:29:22.621Z,16.44
2023-02-23T17:31:50.544Z,16.38
2023-02-23T17:34:17.795Z,16.47
2023-02-23T17:36:45.120Z,16.66
2023-02-23T17:39:14.314Z,16.22
2023-02-23T17:41:41.471Z,15.47
2023-02-23T17:44:09.018Z,15.85
2023-02-23T17:46:36.393Z,15.80
2023-02-23T17:49:03.763Z,15.80
2023-02-23T17:51:30.680Z,15.79
2023-02-23T17:53:57.954Z,15.76
2023-02-23T17:56:25.501Z,16.47
2023-02-23T17:58:52.949Z,16.63
2023-02-23T18:01:20.368Z,16.09
2023-02-23T18:03:47.963Z,16.06
2023-02-23T18:06:17.209Z,16.44
2023-02-23T18:08:45.245Z,16.13
2023-02-23T18:11:12.787Z,16.35
2023-02-23T18:13:40.181Z,16.64
2023-02-23T18:16:10.480Z,17.14
2023-02-23T18:18:45.043Z,17.13
2023-02-23T18:21:19.775Z,17.02
2023-02-23T18:23:47.784Z,16.66
2023-02-23T18:26:24.652Z,17.05
2023-02-23T18:28:51.902Z,16.76
2023-02-23T18:31:22.713Z,16.80
2023-02-23T18:33:52.713Z,16.28
2023-02-23T18:36:24.255Z,16.84
2023-02-23T18:38:51.764Z,16.51
2023-02-23T18:41:19.137Z,16.21
2023-02-23T18:43:46.648Z,15.95
2023-02-23T18:46:14.433Z,16.57
2023-02-23T18:48:42.157Z,16.88
2023-02-23T18:51:14.382Z,16.91
2023-02-23T18:53:41.815Z,16.79
2023-02-23T18:56:12.852Z,16.71
2023-02-23T18:58:40.405Z,16.47
2023-02-23T19:01:12.874Z,16.91
2023-02-23T19:03:41.501Z,16.85
2023-02-23T19:06:12.033Z,16.79
2023-02-23T19:08:39.714Z,16.76
2023-02-23T19:11:07.244Z,16.89
2023-02-23T19:13:34.382Z,16.79
2023-02-23T19:16:06.966Z,16.96
2023-02-23T19:18:35.597Z,16.70
2023-02-23T19:21:04.102Z,16.87
2023-02-23T19:23:31.546Z,16.72
2023-02-23T19:26:02.193Z,16.90
2023-02-23T19:28:30.059Z,16.79
2023-02-23T19:31:09.655Z,16.87
2023-02-23T19:33:39.904Z,16.68
2023-02-23T19:36:13.172Z,16.93
2023-02-23T19:38:42.421Z,16.85
2023-02-23T19:41:12.767Z,16.89
2023-02-23T19:43:39.667Z,16.78
2023-02-23T19:46:09.874Z,16.81
2023-02-23T19:48:37.885Z,16.79
2023-02-23T19:51:05.766Z,16.72
2023-02-23T19:53:33.422Z,16.68
2023-02-23T19:56:11.618Z,16.76
2023-02-23T19:58:39.058Z,16.53
2023-02-23T20:01:08.874Z,16.93
2023-02-23T20:03:39.448Z,16.74
2023-02-23T20:06:07.374Z,16.69
2023-02-23T20:08:34.701Z,16.67
2023-02-23T20:11:06.599Z,16.70
2023-02-23T20:13:34.729Z,16.60
2023-02-23T20:16:11.317Z,16.73
2023-02-23T20:18:40.140Z,16.76
2023-02-23T20:21:23.308Z,16.49
2023-02-23T20:23:50.993Z,16.37
2023-02-23T20:26:31.948Z,16.93
2023-02-23T20:28:59.315Z,16.75
2023-02-23T20:31:30.579Z,16.76
2023-02-23T20:34:01.905Z,16.88
2023-02-23T20:36:28.914Z,16.62
2023-02-23T20:38:56.245Z,16.60
2023-02-23T20:41:25.516Z,16.73
2023-02-23T20:43:52.695Z,16.55
2023-02-23T20:46:20.244Z,16.50
2023-02-23T20:48:49.130Z,16.58
2023-02-23T20:51:18.969Z,16.37
2023-02-23T20:53:48.126Z,16.17
2023-02-23T20:56:18.563Z,16.53
2023-02-23T20:58:46.350Z,16.39
2023-02-23T21:01:16.821Z,16.23
2023-02-23T21:03:44.255Z,16.20
2023-02-23T21:06:11.689Z,16.12
2023-02-23T21:08:42.310Z,16.35
2023-02-23T21:11:09.353Z,15.79
2023-02-23T21:13:36.868Z,15.69
2023-02-23T21:16:03.947Z,15.66
2023-02-23T21:18:31.680Z,15.75
2023-02-23T21:21:06.929Z,16.06
2023-02-23T21:23:33.833Z,16.07
2023-02-23T21:26:09.696Z,15.91
2023-02-23T21:28:39.221Z,16.14
2023-02-23T21:31:06.674Z,16.08
2023-02-23T21:33:33.579Z,16.08
2023-02-23T21:36:00.467Z,16.05
2023-02-23T21:38:27.358Z,15.85
2023-02-23T21:40:54.245Z,15.94
2023-02-23T21:43:23.030Z,16.02
2023-02-23T21:45:49.926Z,15.59
2023-02-23T21:48:16.864Z,15.62
2023-02-23T21:50:44.576Z,15.88
2023-02-23T21:53:12.600Z,15.76
2023-02-23T21:55:42.616Z,15.90
2023-02-23T21:58:09.847Z,15.80
2023-02-23T22:00:37.032Z,15.85
2023-02-23T22:03:04.503Z,15.67
2023-02-23T22:05:35.059Z,15.75
2023-02-23T22:08:02.433Z,15.90
2023-02-23T22:10:32.049Z,15.86
2023-02-23T22:13:02.949Z,15.74
2023-02-23T22:15:30.368Z,15.92
2023-02-23T22:17:57.264Z,15.86
2023-02-23T22:20:25.448Z,15.67
2023-02-23T22:22:52.939Z,15.97
2023-02-23T22:25:20.529Z,15.94
2023-02-23T22:27:47.882Z,15.90
2023-02-23T22:30:15.618Z,15.97
2023-02-23T22:32:43.509Z,15.96
2023-02-23T22:35:11.405Z,15.87
2023-02-23T22:37:38.978Z,15.84
2023-02-23T22:40:25.150Z,15.90
2023-02-23T22:42:54.170Z,15.86
2023-02-23T22:45:21.453Z,15.83
2023-02-23T22:47:48.895Z,15.78
2023-02-23T22:50:19.193Z,15.71
2023-02-23T22:52:47.032Z,15.72
2023-02-23T22:55:14.437Z,15.53
2023-02-23T22:57:41.790Z,15.57
2023-02-23T23:00:11.745Z,15.87
2023-02-23T23:02:38.976Z,15.89
2023-02-23T23:05:07.034Z,15.85
2023-02-23T23:07:34.048Z,15.64
2023-02-23T23:10:05.701Z,15.52
2023-02-23T23:12:34.353Z,15.47
2023-02-23T23:15:02.269Z,15.52
2023-02-23T23:17:30.821Z,15.73
2023-02-23T23:20:02.919Z,15.62
2023-02-23T23:22:31.540Z,15.51
2023-02-23T23:24:58.483Z,15.75
2023-02-23T23:27:25.616Z,15.96
2023-02-23T23:29:52.513Z,15.82
2023-02-23T23:32:21.064Z,15.73
2023-02-23T23:34:49.325Z,15.95
2023-02-23T23:37:18.466Z,15.95
2023-02-23T23:39:45.996Z,15.76
2023-02-23T23:42:13.310Z,15.72
2023-02-23T23:44:40.305Z,15.43
2023-02-23T23:47:07.918Z,15.49
2023-02-23T23:49:38.006Z,15.86
2023-02-23T23:52:06.211Z,15.80
2023-02-23T23:54:39.421Z,15.54
2023-02-23T23:57:07.182Z,15.67
2023-02-23T23:59:35.787Z,15.74
